createdAt,value
2022-11-25T00:01:34.227Z,100753.41
2022-11-25T00:04:02.747Z,100758.44
2022-11-25T00:06:33.888Z,100758.09
2022-11-25T00:09:07.933Z,100759.28
2022-11-25T00:11:42.448Z,100764.34
2022-11-25T00:14:14.537Z,100753.06
2022-11-25T00:16:48.483Z,100747.69
2022-11-25T00:19:18.121Z,100748.50
2022-11-25T00:21:46.540Z,100746.81
2022-11-25T00:24:16.124Z,100748.88
2022-11-25T00:26:45.514Z,100742.66
2022-11-25T00:29:14.512Z,100738.22
2022-11-25T00:31:43.176Z,100735.63
2022-11-25T00:34:13.834Z,100734.84
2022-11-25T00:36:42.807Z,100731.25
2022-11-25T00:39:14.356Z,100725.63
2022-11-25T00:42:03.351Z,100729.16
2022-11-25T00:44:41.803Z,100732.28
2022-11-25T00:47:16.105Z,100730.03
2022-11-25T00:49:53.810Z,100732.47
2022-11-25T00:52:27.036Z,100728.31
2022-11-25T00:54:55.382Z,100726.44
2022-11-25T00:57:25.807Z,100728.03
2022-11-25T00:59:54.285Z,100737.13
2022-11-25T01:02:23.416Z,100738.25
2022-11-25T01:04:51.951Z,100736.91
2022-11-25T01:07:21.427Z,100741.84
2022-11-25T01:09:51.066Z,100738.53
2022-11-25T01:12:19.497Z,100745.25
2022-11-25T01:14:47.877Z,100742.53
2022-11-25T01:17:17.278Z,100736.66
2022-11-25T01:19:45.648Z,100736.13
2022-11-25T01:22:14.061Z,100737.94
2022-11-25T01:24:42.420Z,100739.41
2022-11-25T01:27:10.759Z,100747.94
2022-11-25T01:29:41.455Z,100752.91
2022-11-25T01:32:09.966Z,100753.34
2022-11-25T01:34:38.551Z,100753.19
2022-11-25T01:37:07.142Z,100756.13
2022-11-25T01:39:35.595Z,100762.47
2022-11-25T01:42:04.104Z,100758.28
2022-11-25T01:44:33.168Z,100763.47
2022-11-25T01:47:15.593Z,100766.78
2022-11-25T01:49:50.058Z,100773.06
2022-11-25T01:52:40.648Z,100769.56
2022-11-25T01:55:23.487Z,100777.06
2022-11-25T01:57:55.498Z,100785.47
2022-11-25T02:00:23.983Z,100785.06
2022-11-25T02:02:54.843Z,100795.38
2022-11-25T02:05:33.954Z,100803.78
2022-11-25T02:08:04.628Z,100806.25
2022-11-25T02:10:35.454Z,100813.25
2022-11-25T02:13:04.025Z,100813.72
2022-11-25T02:15:35.265Z,100812.44
2022-11-25T02:18:05.432Z,100812.50
2022-11-25T02:20:33.997Z,100815.66
2022-11-25T02:23:37.706Z,100816.41
2022-11-25T02:26:06.172Z,100823.25
2022-11-25T02:28:35.031Z,100824.34
2022-11-25T02:31:04.746Z,100830.44
2022-11-25T02:33:33.255Z,100829.53
2022-11-25T02:36:14.906Z,100829.59
2022-11-25T02:38:57.639Z,100834.69
2022-11-25T02:41:41.060Z,100836.28
2022-11-25T02:44:09.557Z,100840.59
2022-11-25T02:46:38.108Z,100842.06
2022-11-25T02:49:09.704Z,100852.19
2022-11-25T02:51:41.646Z,100847.66
2022-11-25T02:54:13.013Z,100851.78
2022-11-25T02:56:42.009Z,100838.16
2022-11-25T02:59:10.771Z,100818.44
2022-11-25T03:01:40.258Z,100801.56
2022-11-25T03:04:08.801Z,100803.94
2022-11-25T03:06:37.350Z,100806.84
2022-11-25T03:09:05.801Z,100791.34
2022-11-25T03:11:52.636Z,100764.34
2022-11-25T03:14:21.031Z,100755.34
2022-11-25T03:16:49.653Z,100760.16
2022-11-25T03:19:18.166Z,100753.09
2022-11-25T03:21:46.557Z,100756.06
2022-11-25T03:24:14.970Z,100753.09
2022-11-25T03:26:44.415Z,100754.78
2022-11-25T03:29:12.821Z,100762.63
2022-11-25T03:31:41.312Z,100765.06
2022-11-25T03:34:09.775Z,100792.88
2022-11-25T03:36:39.447Z,100801.47
2022-11-25T03:39:07.814Z,100825.38
2022-11-25T03:41:36.145Z,100836.44
2022-11-25T03:44:04.659Z,100834.50
2022-11-25T03:46:33.061Z,100847.31
2022-11-25T03:49:01.492Z,100843.41
2022-11-25T03:51:29.893Z,100840.31
2022-11-25T03:53:58.400Z,100832.91
2022-11-25T03:56:26.941Z,100853.84
2022-11-25T03:58:55.371Z,100856.91
2022-11-25T04:01:23.856Z,100848.91
2022-11-25T04:03:52.333Z,100868.53
2022-11-25T04:06:22.116Z,100867.88
2022-11-25T04:08:51.164Z,100859.69
2022-11-25T04:11:20.587Z,100855.78
2022-11-25T04:13:48.971Z,100863.06
2022-11-25T04:16:24.857Z,100867.78
2022-11-25T04:18:53.266Z,100874.41
2022-11-25T04:21:21.639Z,100875.97
2022-11-25T04:23:50.061Z,100881.75
2022-11-25T04:26:18.425Z,100885.38
2022-11-25T04:28:46.853Z,100886.59
2022-11-25T04:31:16.368Z,100884.81
2022-11-25T04:33:48.446Z,100886.31
2022-11-25T04:36:20.788Z,100893.47
2022-11-25T04:38:49.400Z,100900.47
2022-11-25T04:41:18.821Z,100904.53
2022-11-25T04:43:47.218Z,100903.16
2022-11-25T04:46:24.878Z,100914.88
2022-11-25T04:48:53.382Z,100918.19
2022-11-25T04:51:21.806Z,100923.69
2022-11-25T04:53:50.190Z,100921.38
2022-11-25T04:56:20.235Z,100920.16
2022-11-25T04:59:06.996Z,100914.88
2022-11-25T05:01:35.522Z,100916.69
2022-11-25T05:04:04.162Z,100918.75
2022-11-25T05:06:32.585Z,100928.13
2022-11-25T05:09:01.035Z,100933.16
2022-11-25T05:11:29.392Z,100941.59
2022-11-25T05:13:57.781Z,100942.06
2022-11-25T05:16:26.299Z,100943.19
2022-11-25T05:18:57.737Z,100943.75
2022-11-25T05:21:26.137Z,100941.50
2022-11-25T05:23:56.093Z,100942.22
2022-11-25T05:26:24.709Z,100929.66
2022-11-25T05:28:53.082Z,100938.78
2022-11-25T05:31:21.530Z,100940.78
2022-11-25T05:33:50.128Z,100942.75
2022-11-25T05:36:18.599Z,100939.63
2022-11-25T05:38:47.402Z,100937.31
2022-11-25T05:41:15.898Z,100938.91
2022-11-25T05:43:44.319Z,100944.56
2022-11-25T05:46:13.140Z,100951.47
2022-11-25T05:48:41.665Z,100948.06
2022-11-25T05:51:10.343Z,100949.13
2022-11-25T05:53:38.708Z,100956.50
2022-11-25T05:56:07.814Z,100962.66
2022-11-25T05:58:36.259Z,100962.09
2022-11-25T06:01:12.253Z,100967.13
2022-11-25T06:03:42.277Z,100971.84
2022-11-25T06:06:11.953Z,100966.63
2022-11-25T06:08:40.391Z,100972.03
2022-11-25T06:11:13.397Z,100975.56
2022-11-25T06:13:43.866Z,100966.81
2022-11-25T06:16:15.683Z,100967.84
2022-11-25T06:18:44.381Z,100972.41
2022-11-25T06:21:13.127Z,100975.94
2022-11-25T06:23:41.622Z,100976.00
2022-11-25T06:26:13.468Z,100992.63
2022-11-25T06:28:42.315Z,100990.63
2022-11-25T06:31:14.487Z,100996.94
2022-11-25T06:33:42.865Z,100994.13
2022-11-25T06:36:17.009Z,101002.75
2022-11-25T06:38:52.048Z,101002.75
2022-11-25T06:41:22.827Z,101010.19
2022-11-25T06:43:51.292Z,101012.56
2022-11-25T06:46:24.916Z,101031.44
2022-11-25T06:48:54.143Z,101020.81
2022-11-25T06:51:24.471Z,101023.41
2022-11-25T06:53:53.612Z,101023.09
2022-11-25T06:56:27.736Z,101028.44
2022-11-25T06:58:56.972Z,101026.91
2022-11-25T07:01:29.495Z,101022.34
2022-11-25T07:04:03.457Z,101020.53
2022-11-25T07:06:33.420Z,101036.41
2022-11-25T07:09:02.532Z,101039.09
2022-11-25T07:11:33.587Z,101045.66
2022-11-25T07:14:06.344Z,101043.50
2022-11-25T07:16:38.203Z,101039.66
2022-11-25T07:19:07.941Z,101038.34
2022-11-25T07:21:36.582Z,101041.75
2022-11-25T07:24:07.848Z,101049.09
2022-11-25T07:26:38.371Z,101067.25
2022-11-25T07:29:29.394Z,101069.75
2022-11-25T07:31:59.582Z,101081.53
2022-11-25T07:34:28.998Z,101085.69
2022-11-25T07:36:58.441Z,101095.13
2022-11-25T07:39:26.924Z,101088.94
2022-11-25T07:41:55.438Z,101089.44
2022-11-25T07:44:24.025Z,101107.97
2022-11-25T07:46:52.560Z,101111.66
2022-11-25T07:49:25.309Z,101105.78
2022-11-25T07:51:59.677Z,101119.91
2022-11-25T07:54:29.124Z,101128.81
2022-11-25T07:56:57.768Z,101129.16
2022-11-25T07:59:27.241Z,101135.56
2022-11-25T08:01:56.389Z,101146.66
2022-11-25T08:04:25.987Z,101145.16
2022-11-25T08:06:55.462Z,101143.97
2022-11-25T08:09:24.199Z,101149.50
2022-11-25T08:11:52.996Z,101158.41
2022-11-25T08:14:21.702Z,101158.75
2022-11-25T08:16:50.216Z,101159.09
2022-11-25T08:19:18.882Z,101163.63
2022-11-25T08:21:50.258Z,101172.69
2022-11-25T08:24:21.052Z,101172.53
2022-11-25T08:26:49.804Z,101176.25
2022-11-25T08:29:19.209Z,101182.97
2022-11-25T08:31:47.685Z,101192.69
2022-11-25T08:34:22.667Z,101181.44
2022-11-25T08:36:52.088Z,101181.59
2022-11-25T08:39:51.154Z,101189.00
2022-11-25T08:42:11.011Z,101179.44
2022-11-25T08:44:39.606Z,101192.53
2022-11-25T08:47:09.772Z,101179.09
2022-11-25T08:49:41.243Z,101174.22
2022-11-25T08:52:10.711Z,101183.44
2022-11-25T08:54:39.350Z,101191.50
2022-11-25T08:57:07.828Z,101182.94
2022-11-25T08:59:36.954Z,101198.91
2022-11-25T09:02:07.251Z,101197.75
2022-11-25T09:04:35.776Z,101193.38
2022-11-25T09:07:04.987Z,101201.41
2022-11-25T09:09:33.705Z,101195.53
2022-11-25T09:12:02.142Z,101213.22
2022-11-25T09:14:30.641Z,101203.09
2022-11-25T09:17:01.977Z,101213.16
2022-11-25T09:19:31.532Z,101217.09
2022-11-25T09:21:59.973Z,101218.28
2022-11-25T09:24:28.500Z,101219.56
2022-11-25T09:26:56.978Z,101220.78
2022-11-25T09:29:26.331Z,101224.78
2022-11-25T09:31:55.772Z,101230.66
2022-11-25T09:34:24.409Z,101238.75
2022-11-25T09:36:53.038Z,101233.50
2022-11-25T09:39:21.426Z,101252.16
2022-11-25T09:42:34.640Z,101260.31
2022-11-25T09:45:33.821Z,101255.44
2022-11-25T09:48:20.332Z,101263.19
2022-11-25T09:51:02.843Z,101271.03
2022-11-25T09:53:53.193Z,101260.84
2022-11-25T09:56:40.855Z,101269.03
2022-11-25T09:59:25.025Z,101265.66
2022-11-25T10:02:02.610Z,101266.16
2022-11-25T10:04:55.114Z,101271.50
2022-11-25T10:07:33.281Z,101280.66
2022-11-25T10:10:04.789Z,101281.09
2022-11-25T10:12:39.913Z,101282.88
2022-11-25T10:15:34.146Z,101294.09
2022-11-25T10:18:27.307Z,101301.06
2022-11-25T10:20:55.975Z,101301.91
2022-11-25T10:23:35.418Z,101311.50
2022-11-25T10:26:15.634Z,101309.00
2022-11-25T10:29:00.260Z,101319.78
2022-11-25T10:31:38.175Z,101328.28
2022-11-25T10:34:26.911Z,101324.03
2022-11-25T10:36:58.860Z,101327.28
2022-11-25T10:39:31.829Z,101338.91
2022-11-25T10:42:12.715Z,101339.13
2022-11-25T10:44:42.244Z,101352.91
2022-11-25T10:47:29.379Z,101337.59
2022-11-25T10:50:20.186Z,101352.00
2022-11-25T10:53:10.719Z,101348.63
2022-11-25T10:55:39.271Z,101355.72
2022-11-25T10:58:29.094Z,101357.97
2022-11-25T11:01:36.028Z,101367.63
2022-11-25T11:04:11.615Z,101364.47
2022-11-25T11:06:42.401Z,101360.28
2022-11-25T11:09:34.523Z,101354.97
2022-11-25T11:12:19.647Z,101366.78
2022-11-25T11:14:48.884Z,101367.44
2022-11-25T11:17:36.824Z,101370.78
2022-11-25T11:20:09.166Z,101379.03
2022-11-25T11:22:47.175Z,101389.59
2022-11-25T11:25:21.656Z,101393.81
2022-11-25T11:27:50.295Z,101387.84
2022-11-25T11:30:23.182Z,101395.53
2022-11-25T11:32:57.724Z,101393.13
2022-11-25T11:35:45.316Z,101406.03
2022-11-25T11:38:30.425Z,101406.16
2022-11-25T11:41:30.083Z,101417.06
2022-11-25T11:44:23.029Z,101423.66
2022-11-25T11:47:03.682Z,101415.28
2022-11-25T11:49:50.541Z,101421.72
2022-11-25T11:52:47.573Z,101419.88
2022-11-25T11:56:11.742Z,101424.34
2022-11-25T11:58:38.808Z,101433.91
2022-11-25T12:01:20.970Z,101435.34
2022-11-25T12:04:03.615Z,101432.22
2022-11-25T12:06:35.029Z,101426.41
2022-11-25T12:09:18.454Z,101432.97
2022-11-25T12:11:54.183Z,101441.09
2022-11-25T12:14:40.629Z,101432.22
2022-11-25T12:17:18.753Z,101450.13
2022-11-25T12:20:00.216Z,101446.22
2022-11-25T12:22:42.474Z,101443.34
2022-11-25T12:25:21.273Z,101449.03
2022-11-25T12:28:06.619Z,101455.19
2022-11-25T12:30:41.786Z,101451.03
2022-11-25T12:33:21.640Z,101452.41
2022-11-25T12:36:16.672Z,101452.91
2022-11-25T12:39:04.077Z,101466.06
2022-11-25T12:41:42.295Z,101469.38
2022-11-25T12:44:19.739Z,101474.16
2022-11-25T12:46:53.383Z,101470.75
2022-11-25T12:49:25.643Z,101482.75
2022-11-25T12:52:26.933Z,101489.03
2022-11-25T12:55:14.678Z,101496.09
2022-11-25T12:58:16.923Z,101497.63
2022-11-25T13:00:56.608Z,101493.75
2022-11-25T13:03:31.127Z,101495.56
2022-11-25T13:06:16.300Z,101503.00
2022-11-25T13:08:51.804Z,101504.16
2022-11-25T13:11:24.004Z,101514.25
2022-11-25T13:14:08.334Z,101507.75
2022-11-25T13:16:37.504Z,101515.38
2022-11-25T13:19:12.248Z,101518.59
2022-11-25T13:22:00.309Z,101518.88
2022-11-25T13:24:34.288Z,101528.53
2022-11-25T13:27:05.160Z,101526.22
2022-11-25T13:29:39.930Z,101530.53
2022-11-25T13:32:31.649Z,101533.84
2022-11-25T13:35:26.224Z,101540.06
2022-11-25T13:37:54.670Z,101545.13
2022-11-25T13:40:23.043Z,101550.53
2022-11-25T13:42:52.507Z,101552.09
2022-11-25T13:45:32.367Z,101546.28
2022-11-25T13:48:18.889Z,101551.72
2022-11-25T13:51:09.974Z,101561.72
2022-11-25T13:53:38.871Z,101558.94
2022-11-25T13:56:24.400Z,101572.41
2022-11-25T13:59:11.153Z,101563.22
2022-11-25T14:01:46.929Z,101565.78
2022-11-25T14:04:16.574Z,101576.25
2022-11-25T14:07:20.287Z,101577.88
2022-11-25T14:10:17.011Z,101573.81
2022-11-25T14:12:59.247Z,101576.31
2022-11-25T14:15:44.456Z,101587.03
2022-11-25T14:19:16.866Z,101582.31
2022-11-25T14:21:45.667Z,101591.28
2022-11-25T14:24:28.156Z,101588.69
2022-11-25T14:26:59.205Z,101603.53
2022-11-25T14:29:30.838Z,101606.00
2022-11-25T14:32:08.757Z,101597.25
2022-11-25T14:34:49.160Z,101602.94
2022-11-25T14:37:44.208Z,101616.03
2022-11-25T14:40:21.971Z,101618.63
2022-11-25T14:42:54.039Z,101631.72
2022-11-25T14:45:26.292Z,101626.09
2022-11-25T14:47:55.375Z,101630.78
2022-11-25T14:50:40.452Z,101644.31
2022-11-25T14:53:11.259Z,101640.94
2022-11-25T14:55:39.722Z,101646.91
2022-11-25T14:58:12.497Z,101659.44
2022-11-25T15:00:59.863Z,101662.25
2022-11-25T15:03:28.490Z,101672.00
2022-11-25T15:06:06.025Z,101671.09
2022-11-25T15:08:45.703Z,101664.78
2022-11-25T15:11:18.679Z,101677.31
2022-11-25T15:13:53.030Z,101674.72
2022-11-25T15:16:26.010Z,101671.94
2022-11-25T15:18:59.863Z,101677.81
2022-11-25T15:22:00.051Z,101693.41
2022-11-25T15:24:48.948Z,101688.66
2022-11-25T15:27:25.151Z,101696.91
2022-11-25T15:29:55.774Z,101702.09
2022-11-25T15:32:29.805Z,101703.34
2022-11-25T15:35:02.399Z,101713.53
2022-11-25T15:37:30.953Z,101712.75
2022-11-25T15:40:30.162Z,101719.31
2022-11-25T15:43:02.493Z,101722.75
2022-11-25T15:45:44.313Z,101725.47
2022-11-25T15:48:24.324Z,101731.41
2022-11-25T15:50:56.486Z,101739.81
2022-11-25T15:53:31.666Z,101745.72
2022-11-25T15:56:03.307Z,101748.59
2022-11-25T15:58:31.799Z,101753.66
2022-11-25T16:01:19.237Z,101762.94
2022-11-25T16:03:49.376Z,101765.19
2022-11-25T16:06:26.547Z,101765.50
2022-11-25T16:09:00.936Z,101772.09
2022-11-25T16:11:33.607Z,101775.34
2022-11-25T16:14:26.867Z,101778.91
2022-11-25T16:17:01.950Z,101781.97
2022-11-25T16:19:37.769Z,101788.22
2022-11-25T16:22:14.451Z,101793.44
2022-11-25T16:24:50.625Z,101798.00
2022-11-25T16:27:19.282Z,101811.66
2022-11-25T16:29:50.692Z,101812.50
2022-11-25T16:32:28.287Z,101825.00
2022-11-25T16:35:09.972Z,101823.13
2022-11-25T16:37:42.775Z,101833.41
2022-11-25T16:40:15.366Z,101835.13
2022-11-25T16:42:48.732Z,101840.84
2022-11-25T16:45:23.422Z,101841.69
2022-11-25T16:47:51.950Z,101844.59
2022-11-25T16:50:23.144Z,101846.44
2022-11-25T16:52:51.504Z,101851.50
2022-11-25T16:55:20.131Z,101859.09
2022-11-25T16:57:48.612Z,101860.78
2022-11-25T17:00:18.391Z,101874.81
2022-11-25T17:02:46.828Z,101874.16
2022-11-25T17:05:24.312Z,101881.22
2022-11-25T17:07:52.904Z,101885.78
2022-11-25T17:10:21.693Z,101892.06
2022-11-25T17:12:50.880Z,101891.72
2022-11-25T17:15:24.795Z,101891.22
2022-11-25T17:17:54.633Z,101901.50
2022-11-25T17:20:24.773Z,101895.25
2022-11-25T17:22:54.134Z,101901.81
2022-11-25T17:25:25.578Z,101908.38
2022-11-25T17:27:54.747Z,101914.94
2022-11-25T17:30:25.514Z,101915.09
2022-11-25T17:33:06.374Z,101917.97
2022-11-25T17:35:34.780Z,101921.00
2022-11-25T17:38:12.155Z,101935.72
2022-11-25T17:40:43.175Z,101946.03
2022-11-25T17:43:16.540Z,101951.91
2022-11-25T17:45:46.623Z,101936.06
2022-11-25T17:48:17.436Z,101949.72
2022-11-25T17:50:47.337Z,101956.75
2022-11-25T17:53:15.786Z,101961.97
2022-11-25T17:55:44.247Z,101965.72
2022-11-25T17:58:15.442Z,101969.72
2022-11-25T18:00:45.242Z,101969.31
2022-11-25T18:03:16.315Z,101983.94
2022-11-25T18:05:45.947Z,101989.44
2022-11-25T18:08:14.582Z,101992.06
2022-11-25T18:10:46.246Z,102001.72
2022-11-25T18:13:16.233Z,101999.50
2022-11-25T18:15:44.726Z,102002.75
2022-11-25T18:18:21.843Z,101998.03
2022-11-25T18:20:51.488Z,102001.19
2022-11-25T18:23:20.063Z,102000.94
2022-11-25T18:25:48.808Z,102008.16
2022-11-25T18:28:24.664Z,102006.31
2022-11-25T18:30:57.046Z,102021.88
2022-11-25T18:33:25.546Z,102023.38
2022-11-25T18:35:54.109Z,102017.75
2022-11-25T18:38:22.704Z,102025.50
2022-11-25T18:40:53.936Z,102032.78
2022-11-25T18:43:26.244Z,102031.41
2022-11-25T18:45:55.599Z,102031.84
2022-11-25T18:48:25.929Z,102035.78
2022-11-25T18:50:56.117Z,102050.41
2022-11-25T18:53:24.663Z,102060.59
2022-11-25T18:55:53.206Z,102058.72
2022-11-25T18:58:24.370Z,102048.72
2022-11-25T19:00:57.925Z,102049.81
2022-11-25T19:03:26.561Z,102060.22
2022-11-25T19:05:55.889Z,102066.31
2022-11-25T19:08:24.382Z,102066.16
2022-11-25T19:10:53.293Z,102076.22
2022-11-25T19:13:34.938Z,102074.69
2022-11-25T19:16:12.029Z,102083.22
2022-11-25T19:18:40.700Z,102092.22
2022-11-25T19:21:18.453Z,102094.53
2022-11-25T19:23:47.926Z,102097.75
2022-11-25T19:26:24.945Z,102096.00
2022-11-25T19:29:01.567Z,102103.84
2022-11-25T19:31:33.198Z,102099.63
2022-11-25T19:34:02.114Z,102110.25
2022-11-25T19:36:31.750Z,102109.94
2022-11-25T19:39:00.548Z,102112.66
2022-11-25T19:41:29.242Z,102110.84
2022-11-25T19:43:57.830Z,102117.16
2022-11-25T19:46:33.108Z,102120.31
2022-11-25T19:49:03.060Z,102111.09
2022-11-25T19:51:33.953Z,102130.84
2022-11-25T19:54:12.231Z,102130.16
2022-11-25T19:56:41.363Z,102133.97
2022-11-25T19:59:10.486Z,102137.19
2022-11-25T20:01:43.459Z,102142.00
2022-11-25T20:04:22.045Z,102147.41
2022-11-25T20:06:50.619Z,102143.59
2022-11-25T20:09:19.022Z,102156.94
2022-11-25T20:11:47.632Z,102151.19
2022-11-25T20:14:16.089Z,102152.88
2022-11-25T20:16:44.658Z,102157.81
2022-11-25T20:19:18.150Z,102162.84
2022-11-25T20:21:47.377Z,102169.41
2022-11-25T20:24:19.514Z,102170.38
2022-11-25T20:26:51.599Z,102179.06
2022-11-25T20:29:27.399Z,102174.31
2022-11-25T20:31:58.783Z,102174.31
2022-11-25T20:34:28.266Z,102176.56
2022-11-25T20:36:56.995Z,102182.78
2022-11-25T20:39:25.593Z,102190.75
2022-11-25T20:41:54.007Z,102196.53
2022-11-25T20:44:23.623Z,102198.09
2022-11-25T20:46:52.255Z,102201.81
2022-11-25T20:49:29.339Z,102196.41
2022-11-25T20:51:59.234Z,102207.47
2022-11-25T20:54:27.825Z,102205.47
2022-11-25T20:56:57.284Z,102213.13
2022-11-25T20:59:25.769Z,102214.84
2022-11-25T21:01:54.897Z,102216.53
2022-11-25T21:04:23.606Z,102223.31
2022-11-25T21:06:52.062Z,102223.31
2022-11-25T21:09:24.812Z,102229.28
2022-11-25T21:11:53.278Z,102225.16
2022-11-25T21:14:21.717Z,102226.72
2022-11-25T21:16:50.353Z,102231.06
2022-11-25T21:19:18.908Z,102236.03
2022-11-25T21:21:50.571Z,102247.88
2022-11-25T21:24:51.426Z,102248.66
2022-11-25T21:27:20.562Z,102252.16
2022-11-25T21:29:48.902Z,102260.66
2022-11-25T21:32:22.871Z,102256.09
2022-11-25T21:34:52.123Z,102261.06
2022-11-25T21:37:30.145Z,102267.13
2022-11-25T21:39:59.213Z,102270.22
2022-11-25T21:42:29.667Z,102267.97
2022-11-25T21:44:58.191Z,102270.22
2022-11-25T21:47:29.544Z,102279.31
2022-11-25T21:49:58.367Z,102297.00
2022-11-25T21:52:26.844Z,102295.44
2022-11-25T21:54:55.266Z,102299.81
2022-11-25T21:57:27.958Z,102306.75
2022-11-25T21:59:56.403Z,102299.38
2022-11-25T22:02:24.977Z,102303.03
2022-11-25T22:04:54.749Z,102308.00
2022-11-25T22:07:29.176Z,102312.81
2022-11-25T22:09:59.132Z,102319.44
2022-11-25T22:12:30.225Z,102315.34
2022-11-25T22:15:00.775Z,102315.31
2022-11-25T22:17:30.033Z,102321.38
2022-11-25T22:19:58.861Z,102320.22
2022-11-25T22:22:27.940Z,102323.78
2022-11-25T22:24:56.366Z,102326.09
2022-11-25T22:27:36.202Z,102323.34
2022-11-25T22:30:05.716Z,102339.97
2022-11-25T22:32:34.214Z,102337.81
2022-11-25T22:35:02.624Z,102328.91
2022-11-25T22:37:31.221Z,102336.81
2022-11-25T22:39:59.692Z,102339.97
2022-11-25T22:42:30.990Z,102343.31
2022-11-25T22:45:02.131Z,102345.44
2022-11-25T22:47:37.312Z,102352.34
2022-11-25T22:50:14.389Z,102346.41
2022-11-25T22:52:43.097Z,102362.00
2022-11-25T22:55:16.401Z,102367.63
2022-11-25T22:57:45.585Z,102375.97
2022-11-25T23:00:23.858Z,102372.16
2022-11-25T23:02:56.258Z,102380.41
2022-11-25T23:05:32.567Z,102382.28
2022-11-25T23:08:09.813Z,102375.56
2022-11-25T23:10:38.268Z,102389.28
2022-11-25T23:13:06.997Z,102390.69
2022-11-25T23:15:36.261Z,102383.47
2022-11-25T23:18:12.121Z,102386.34
2022-11-25T23:20:41.682Z,102390.34
2022-11-25T23:23:19.819Z,102401.72
2022-11-25T23:25:49.204Z,102399.63
2022-11-25T23:28:17.693Z,102401.09
2022-11-25T23:30:52.035Z,102400.31
2022-11-25T23:33:29.599Z,102403.72
2022-11-25T23:35:59.233Z,102409.78
2022-11-25T23:38:28.811Z,102416.03
2022-11-25T23:40:57.279Z,102411.50
2022-11-25T23:43:26.583Z,102410.19
2022-11-25T23:45:56.488Z,102421.84
2022-11-25T23:48:29.272Z,102416.00
2022-11-25T23:50:59.223Z,102426.88
2022-11-25T23:53:33.566Z,102427.34
2022-11-25T23:56:02.099Z,102426.88
2022-11-25T23:58:30.659Z,102423.53
